Kennett, Missouri
Current Conditions -  °F | °C
As of 2:53 AM on Sunday 23 Nov 2014 (Local Time) from KHKA Reporting Station
Clear Clear  
Wind Chill: 63°   Ceiling: Unl
Heat Index: 63°   Visibility: 10mi
Dew Point: 50°   Wind: 9mph
Humidity: 63%   Direction: 140°SE
Pressure: 29.85"   Gusts: NA
Location:  36.24°N, 90.05°W
Report Text: KHKA 230853Z AUTO 14008KT 10SM CLR 17/10 A2985 RMK AO2 SLP106 T01720100 56026 $
Loading
Personal Weather Stations






























Interactive Weather Map New forecast layout! Learn more

10-Day Weather Forecast

Advertisements
Track Severe Weather on mobile